sensor_id;sensor_type;location;lat;lon;timestamp;temperature;humidity
35305;DHT22;26433;48.034;-1.764;2024-01-27T00:03:49;6.60;92.30
35305;DHT22;26433;48.034;-1.764;2024-01-27T00:08:53;6.40;92.60
35305;DHT22;26433;48.034;-1.764;2024-01-27T00:13:58;6.30;92.80
35305;DHT22;26433;48.034;-1.764;2024-01-27T00:19:02;6.30;92.90
35305;DHT22;26433;48.034;-1.764;2024-01-27T00:24:06;6.30;92.80
35305;DHT22;26433;48.034;-1.764;2024-01-27T00:29:11;6.20;92.70
35305;DHT22;26433;48.034;-1.764;2024-01-27T00:34:15;6.70;92.90
35305;DHT22;26433;48.034;-1.764;2024-01-27T00:39:18;6.80;92.80
35305;DHT22;26433;48.034;-1.764;2024-01-27T00:44:23;6.10;92.70
35305;DHT22;26433;48.034;-1.764;2024-01-27T00:49:27;6.40;92.90
35305;DHT22;26433;48.034;-1.764;2024-01-27T00:54:31;5.90;93.30
35305;DHT22;26433;48.034;-1.764;2024-01-27T00:59:36;5.80;93.10
35305;DHT22;26433;48.034;-1.764;2024-01-27T01:04:40;5.90;93.20
35305;DHT22;26433;48.034;-1.764;2024-01-27T01:09:44;6.30;93.30
35305;DHT22;26433;48.034;-1.764;2024-01-27T01:14:49;5.80;93.00
35305;DHT22;26433;48.034;-1.764;2024-01-27T01:19:53;5.80;93.10
35305;DHT22;26433;48.034;-1.764;2024-01-27T01:24:57;5.80;93.00
35305;DHT22;26433;48.034;-1.764;2024-01-27T01:30:02;6.30;93.20
35305;DHT22;26433;48.034;-1.764;2024-01-27T01:35:06;5.70;93.30
35305;DHT22;26433;48.034;-1.764;2024-01-27T01:40:10;5.80;93.20
35305;DHT22;26433;48.034;-1.764;2024-01-27T01:45:16;5.70;93.20
35305;DHT22;26433;48.034;-1.764;2024-01-27T01:50:20;5.80;93.10
35305;DHT22;26433;48.034;-1.764;2024-01-27T01:55:24;5.60;93.30
35305;DHT22;26433;48.034;-1.764;2024-01-27T02:00:30;5.60;93.40
35305;DHT22;26433;48.034;-1.764;2024-01-27T02:05:33;5.70;93.70
35305;DHT22;26433;48.034;-1.764;2024-01-27T02:10:37;5.60;93.30
35305;DHT22;26433;48.034;-1.764;2024-01-27T02:15:44;5.50;93.20
35305;DHT22;26433;48.034;-1.764;2024-01-27T02:20:48;5.60;93.10
35305;DHT22;26433;48.034;-1.764;2024-01-27T02:25:53;5.40;93.50
35305;DHT22;26433;48.034;-1.764;2024-01-27T02:30:57;5.40;93.50
35305;DHT22;26433;48.034;-1.764;2024-01-27T02:36:02;5.40;93.50
35305;DHT22;26433;48.034;-1.764;2024-01-27T02:41:07;5.40;93.50
35305;DHT22;26433;48.034;-1.764;2024-01-27T02:46:12;5.40;93.50
35305;DHT22;26433;48.034;-1.764;2024-01-27T02:51:19;5.40;93.60
35305;DHT22;26433;48.034;-1.764;2024-01-27T02:56:25;6.10;93.50
35305;DHT22;26433;48.034;-1.764;2024-01-27T03:01:28;5.40;93.40
35305;DHT22;26433;48.034;-1.764;2024-01-27T03:06:32;5.30;93.50
35305;DHT22;26433;48.034;-1.764;2024-01-27T03:11:37;5.50;93.50
35305;DHT22;26433;48.034;-1.764;2024-01-27T03:16:41;5.20;94.00
35305;DHT22;26433;48.034;-1.764;2024-01-27T03:21:45;5.20;93.20
35305;DHT22;26433;48.034;-1.764;2024-01-27T03:26:50;5.20;94.10
35305;DHT22;26433;48.034;-1.764;2024-01-27T03:31:54;5.90;94.10
35305;DHT22;26433;48.034;-1.764;2024-01-27T03:36:57;5.30;94.00
35305;DHT22;26433;48.034;-1.764;2024-01-27T03:42:03;5.40;93.50
35305;DHT22;26433;48.034;-1.764;2024-01-27T03:47:06;5.40;93.50
35305;DHT22;26433;48.034;-1.764;2024-01-27T03:52:11;5.50;93.00
35305;DHT22;26433;48.034;-1.764;2024-01-27T03:57:15;5.50;93.50
35305;DHT22;26433;48.034;-1.764;2024-01-27T04:02:19;5.80;93.50
35305;DHT22;26433;48.034;-1.764;2024-01-27T04:07:23;5.60;93.10
35305;DHT22;26433;48.034;-1.764;2024-01-27T04:12:28;5.60;93.40
35305;DHT22;26433;48.034;-1.764;2024-01-27T04:17:32;5.70;92.70
35305;DHT22;26433;48.034;-1.764;2024-01-27T04:22:36;5.60;94.20
35305;DHT22;26433;48.034;-1.764;2024-01-27T04:27:41;5.70;94.30
35305;DHT22;26433;48.034;-1.764;2024-01-27T04:32:45;5.60;94.00
35305;DHT22;26433;48.034;-1.764;2024-01-27T04:37:51;5.60;93.90
35305;DHT22;26433;48.034;-1.764;2024-01-27T04:42:56;5.60;94.10
35305;DHT22;26433;48.034;-1.764;2024-01-27T04:48:00;5.50;93.80
35305;DHT22;26433;48.034;-1.764;2024-01-27T04:53:04;5.80;94.30
35305;DHT22;26433;48.034;-1.764;2024-01-27T04:58:09;5.80;94.60
35305;DHT22;26433;48.034;-1.764;2024-01-27T05:03:13;5.40;94.80
35305;DHT22;26433;48.034;-1.764;2024-01-27T05:08:17;5.70;94.80
35305;DHT22;26433;48.034;-1.764;2024-01-27T05:13:22;5.50;94.50
35305;DHT22;26433;48.034;-1.764;2024-01-27T05:18:26;5.60;93.90
35305;DHT22;26433;48.034;-1.764;2024-01-27T05:23:31;5.60;94.30
35305;DHT22;26433;48.034;-1.764;2024-01-27T05:28:36;5.60;94.40
35305;DHT22;26433;48.034;-1.764;2024-01-27T05:33:40;6.20;94.40
35305;DHT22;26433;48.034;-1.764;2024-01-27T05:38:44;5.60;94.50
35305;DHT22;26433;48.034;-1.764;2024-01-27T05:43:49;5.50;94.80
35305;DHT22;26433;48.034;-1.764;2024-01-27T05:48:52;6.30;95.00
35305;DHT22;26433;48.034;-1.764;2024-01-27T05:54:00;6.30;94.40
35305;DHT22;26433;48.034;-1.764;2024-01-27T05:59:06;5.50;94.50
35305;DHT22;26433;48.034;-1.764;2024-01-27T06:04:09;5.40;95.00
35305;DHT22;26433;48.034;-1.764;2024-01-27T06:09:15;5.70;95.20
35305;DHT22;26433;48.034;-1.764;2024-01-27T06:14:20;5.40;95.00
35305;DHT22;26433;48.034;-1.764;2024-01-27T06:19:23;5.40;95.10
35305;DHT22;26433;48.034;-1.764;2024-01-27T06:24:27;5.40;95.20
35305;DHT22;26433;48.034;-1.764;2024-01-27T06:29:32;5.40;95.40
35305;DHT22;26433;48.034;-1.764;2024-01-27T06:34:36;5.40;95.10
35305;DHT22;26433;48.034;-1.764;2024-01-27T06:39:40;5.40;95.10
35305;DHT22;26433;48.034;-1.764;2024-01-27T06:44:45;5.40;95.00
35305;DHT22;26433;48.034;-1.764;2024-01-27T06:49:48;5.30;95.70
35305;DHT22;26433;48.034;-1.764;2024-01-27T06:54:52;5.10;95.30
35305;DHT22;26433;48.034;-1.764;2024-01-27T06:59:57;5.60;96.20
35305;DHT22;26433;48.034;-1.764;2024-01-27T07:05:01;5.30;96.70
35305;DHT22;26433;48.034;-1.764;2024-01-27T07:10:06;4.90;95.40
35305;DHT22;26433;48.034;-1.764;2024-01-27T07:15:12;4.90;96.20
35305;DHT22;26433;48.034;-1.764;2024-01-27T07:20:17;4.90;96.30
35305;DHT22;26433;48.034;-1.764;2024-01-27T07:25:20;4.90;96.00
35305;DHT22;26433;48.034;-1.764;2024-01-27T07:30:25;5.00;96.20
35305;DHT22;26433;48.034;-1.764;2024-01-27T07:35:29;5.60;96.00
35305;DHT22;26433;48.034;-1.764;2024-01-27T07:40:34;5.00;95.70
35305;DHT22;26433;48.034;-1.764;2024-01-27T07:45:39;5.10;95.80
35305;DHT22;26433;48.034;-1.764;2024-01-27T07:50:43;4.90;96.00
35305;DHT22;26433;48.034;-1.764;2024-01-27T07:55:50;5.40;96.30
35305;DHT22;26433;48.034;-1.764;2024-01-27T08:00:57;5.00;96.00
35305;DHT22;26433;48.034;-1.764;2024-01-27T08:06:04;5.00;95.90
35305;DHT22;26433;48.034;-1.764;2024-01-27T08:11:09;5.00;96.00
35305;DHT22;26433;48.034;-1.764;2024-01-27T08:16:14;5.10;95.80
35305;DHT22;26433;48.034;-1.764;2024-01-27T08:21:18;5.20;96.00
35305;DHT22;26433;48.034;-1.764;2024-01-27T08:26:22;5.50;96.30
35305;DHT22;26433;48.034;-1.764;2024-01-27T08:31:27;5.20;96.20
35305;DHT22;26433;48.034;-1.764;2024-01-27T08:36:31;5.70;95.80
35305;DHT22;26433;48.034;-1.764;2024-01-27T08:41:35;5.40;95.30
35305;DHT22;26433;48.034;-1.764;2024-01-27T08:46:40;6.30;95.60
35305;DHT22;26433;48.034;-1.764;2024-01-27T08:51:43;6.10;95.70
35305;DHT22;26433;48.034;-1.764;2024-01-27T08:56:47;5.70;95.20
35305;DHT22;26433;48.034;-1.764;2024-01-27T09:01:52;5.80;95.20
35305;DHT22;26433;48.034;-1.764;2024-01-27T09:06:56;6.00;95.00
35305;DHT22;26433;48.034;-1.764;2024-01-27T09:11:59;6.30;94.90
35305;DHT22;26433;48.034;-1.764;2024-01-27T09:17:05;6.40;94.30
35305;DHT22;26433;48.034;-1.764;2024-01-27T09:22:08;6.90;94.20
35305;DHT22;26433;48.034;-1.764;2024-01-27T09:27:12;6.80;94.20
35305;DHT22;26433;48.034;-1.764;2024-01-27T09:32:17;7.00;93.80
35305;DHT22;26433;48.034;-1.764;2024-01-27T09:37:21;7.30;93.20
35305;DHT22;26433;48.034;-1.764;2024-01-27T09:42:33;7.40;92.90
35305;DHT22;26433;48.034;-1.764;2024-01-27T09:47:40;7.60;93.30
35305;DHT22;26433;48.034;-1.764;2024-01-27T09:52:45;7.70;92.90
35305;DHT22;26433;48.034;-1.764;2024-01-27T09:57:49;8.00;92.50
35305;DHT22;26433;48.034;-1.764;2024-01-27T10:02:56;8.30;92.30
35305;DHT22;26433;48.034;-1.764;2024-01-27T10:08:01;8.50;92.10
35305;DHT22;26433;48.034;-1.764;2024-01-27T10:13:05;9.00;91.60
35305;DHT22;26433;48.034;-1.764;2024-01-27T10:18:10;9.30;90.70
35305;DHT22;26433;48.034;-1.764;2024-01-27T10:23:15;9.60;90.20
35305;DHT22;26433;48.034;-1.764;2024-01-27T10:28:19;10.00;88.80
35305;DHT22;26433;48.034;-1.764;2024-01-27T10:33:26;10.30;87.60
35305;DHT22;26433;48.034;-1.764;2024-01-27T10:38:35;10.40;86.80
35305;DHT22;26433;48.034;-1.764;2024-01-27T10:43:39;10.60;86.50
35305;DHT22;26433;48.034;-1.764;2024-01-27T10:48:46;10.80;87.40
35305;DHT22;26433;48.034;-1.764;2024-01-27T10:53:55;10.40;88.20
35305;DHT22;26433;48.034;-1.764;2024-01-27T10:59:04;9.90;88.40
35305;DHT22;26433;48.034;-1.764;2024-01-27T11:04:11;10.50;88.60
35305;DHT22;26433;48.034;-1.764;2024-01-27T11:09:17;10.70;88.70
35305;DHT22;26433;48.034;-1.764;2024-01-27T11:14:21;10.90;89.40
35305;DHT22;26433;48.034;-1.764;2024-01-27T11:19:27;11.50;86.90
35305;DHT22;26433;48.034;-1.764;2024-01-27T11:24:31;12.10;83.60
35305;DHT22;26433;48.034;-1.764;2024-01-27T11:29:35;12.80;81.40
35305;DHT22;26433;48.034;-1.764;2024-01-27T11:34:44;13.60;78.80
35305;DHT22;26433;48.034;-1.764;2024-01-27T11:39:48;14.30;76.30
35305;DHT22;26433;48.034;-1.764;2024-01-27T11:44:52;14.80;74.90
35305;DHT22;26433;48.034;-1.764;2024-01-27T11:49:57;15.30;74.10
35305;DHT22;26433;48.034;-1.764;2024-01-27T11:55:01;15.70;73.00
35305;DHT22;26433;48.034;-1.764;2024-01-27T12:00:06;16.00;72.30
35305;DHT22;26433;48.034;-1.764;2024-01-27T12:05:13;16.20;71.60
35305;DHT22;26433;48.034;-1.764;2024-01-27T12:10:17;16.20;72.00
35305;DHT22;26433;48.034;-1.764;2024-01-27T12:15:22;16.30;71.90
35305;DHT22;26433;48.034;-1.764;2024-01-27T12:20:27;16.50;71.50
35305;DHT22;26433;48.034;-1.764;2024-01-27T12:25:31;16.50;70.40
35305;DHT22;26433;48.034;-1.764;2024-01-27T12:30:35;16.70;70.50
35305;DHT22;26433;48.034;-1.764;2024-01-27T12:35:40;16.80;70.20
35305;DHT22;26433;48.034;-1.764;2024-01-27T12:40:46;17.00;70.00
35305;DHT22;26433;48.034;-1.764;2024-01-27T12:45:50;17.20;69.70
35305;DHT22;26433;48.034;-1.764;2024-01-27T12:50:55;17.50;68.70
35305;DHT22;26433;48.034;-1.764;2024-01-27T12:55:59;17.70;67.80
35305;DHT22;26433;48.034;-1.764;2024-01-27T13:01:03;18.10;66.90
35305;DHT22;26433;48.034;-1.764;2024-01-27T13:06:08;18.30;66.50
35305;DHT22;26433;48.034;-1.764;2024-01-27T13:11:13;18.50;66.20
35305;DHT22;26433;48.034;-1.764;2024-01-27T13:16:17;18.50;65.40
35305;DHT22;26433;48.034;-1.764;2024-01-27T13:21:22;18.50;65.70
35305;DHT22;26433;48.034;-1.764;2024-01-27T13:26:25;18.60;65.00
35305;DHT22;26433;48.034;-1.764;2024-01-27T13:31:29;18.80;64.70
35305;DHT22;26433;48.034;-1.764;2024-01-27T13:36:34;18.70;64.60
35305;DHT22;26433;48.034;-1.764;2024-01-27T13:41:38;18.60;64.90
35305;DHT22;26433;48.034;-1.764;2024-01-27T13:46:42;18.50;64.40
35305;DHT22;26433;48.034;-1.764;2024-01-27T13:51:47;18.40;64.80
35305;DHT22;26433;48.034;-1.764;2024-01-27T13:56:51;18.30;64.80
35305;DHT22;26433;48.034;-1.764;2024-01-27T14:01:54;18.40;64.60
35305;DHT22;26433;48.034;-1.764;2024-01-27T14:07:00;18.30;64.00
35305;DHT22;26433;48.034;-1.764;2024-01-27T14:12:06;18.30;63.90
35305;DHT22;26433;48.034;-1.764;2024-01-27T14:17:10;18.20;64.00
35305;DHT22;26433;48.034;-1.764;2024-01-27T14:22:15;18.10;64.40
35305;DHT22;26433;48.034;-1.764;2024-01-27T14:27:19;18.10;64.10
35305;DHT22;26433;48.034;-1.764;2024-01-27T14:32:28;18.20;63.90
35305;DHT22;26433;48.034;-1.764;2024-01-27T14:37:33;18.00;64.00
35305;DHT22;26433;48.034;-1.764;2024-01-27T14:42:37;17.80;64.00
35305;DHT22;26433;48.034;-1.764;2024-01-27T14:47:42;17.50;64.30
35305;DHT22;26433;48.034;-1.764;2024-01-27T14:52:47;17.40;64.50
35305;DHT22;26433;48.034;-1.764;2024-01-27T14:57:51;17.20;64.40
35305;DHT22;26433;48.034;-1.764;2024-01-27T15:02:55;17.30;64.30
35305;DHT22;26433;48.034;-1.764;2024-01-27T15:08:00;17.10;63.90
35305;DHT22;26433;48.034;-1.764;2024-01-27T15:13:03;17.00;64.20
35305;DHT22;26433;48.034;-1.764;2024-01-27T15:18:07;17.10;63.80
35305;DHT22;26433;48.034;-1.764;2024-01-27T15:23:13;17.10;63.50
35305;DHT22;26433;48.034;-1.764;2024-01-27T15:28:16;17.00;63.70
35305;DHT22;26433;48.034;-1.764;2024-01-27T15:33:20;17.00;63.60
35305;DHT22;26433;48.034;-1.764;2024-01-27T15:38:26;17.00;63.40
35305;DHT22;26433;48.034;-1.764;2024-01-27T15:43:29;16.90;63.70
35305;DHT22;26433;48.034;-1.764;2024-01-27T15:48:33;16.60;63.80
35305;DHT22;26433;48.034;-1.764;2024-01-27T15:53:40;16.50;64.10
35305;DHT22;26433;48.034;-1.764;2024-01-27T15:58:44;16.20;64.50
35305;DHT22;26433;48.034;-1.764;2024-01-27T16:03:47;15.90;65.00
35305;DHT22;26433;48.034;-1.764;2024-01-27T16:08:53;15.50;65.20
35305;DHT22;26433;48.034;-1.764;2024-01-27T16:13:57;15.10;65.90
35305;DHT22;26433;48.034;-1.764;2024-01-27T16:19:01;14.70;66.20
35305;DHT22;26433;48.034;-1.764;2024-01-27T16:24:07;14.40;66.80
35305;DHT22;26433;48.034;-1.764;2024-01-27T16:29:10;14.00;67.20
35305;DHT22;26433;48.034;-1.764;2024-01-27T16:34:14;13.80;67.90
35305;DHT22;26433;48.034;-1.764;2024-01-27T16:39:19;13.50;68.00
35305;DHT22;26433;48.034;-1.764;2024-01-27T16:44:23;13.30;68.40
35305;DHT22;26433;48.034;-1.764;2024-01-27T16:49:26;13.10;68.50
35305;DHT22;26433;48.034;-1.764;2024-01-27T16:54:32;12.80;69.20
35305;DHT22;26433;48.034;-1.764;2024-01-27T16:59:35;12.70;69.10
35305;DHT22;26433;48.034;-1.764;2024-01-27T17:04:40;12.50;69.30
35305;DHT22;26433;48.034;-1.764;2024-01-27T17:09:46;12.30;69.80
35305;DHT22;26433;48.034;-1.764;2024-01-27T17:14:49;12.10;69.80
35305;DHT22;26433;48.034;-1.764;2024-01-27T17:19:53;11.90;70.20
35305;DHT22;26433;48.034;-1.764;2024-01-27T17:24:59;11.80;70.50
35305;DHT22;26433;48.034;-1.764;2024-01-27T17:30:05;11.70;70.80
35305;DHT22;26433;48.034;-1.764;2024-01-27T17:35:12;11.50;70.90
35305;DHT22;26433;48.034;-1.764;2024-01-27T17:40:17;11.50;71.10
35305;DHT22;26433;48.034;-1.764;2024-01-27T17:45:20;11.40;71.20
35305;DHT22;26433;48.034;-1.764;2024-01-27T17:50:24;11.30;71.30
35305;DHT22;26433;48.034;-1.764;2024-01-27T17:55:29;11.30;71.50
35305;DHT22;26433;48.034;-1.764;2024-01-27T18:00:33;11.10;71.70
35305;DHT22;26433;48.034;-1.764;2024-01-27T18:05:37;11.00;72.20
35305;DHT22;26433;48.034;-1.764;2024-01-27T18:10:42;10.90;72.70
35305;DHT22;26433;48.034;-1.764;2024-01-27T18:15:45;10.90;72.60
35305;DHT22;26433;48.034;-1.764;2024-01-27T18:20:49;10.80;72.70
35305;DHT22;26433;48.034;-1.764;2024-01-27T18:25:54;10.80;73.00
35305;DHT22;26433;48.034;-1.764;2024-01-27T18:30:58;10.70;73.10
35305;DHT22;26433;48.034;-1.764;2024-01-27T18:36:01;10.60;73.70
35305;DHT22;26433;48.034;-1.764;2024-01-27T18:41:06;10.50;74.10
35305;DHT22;26433;48.034;-1.764;2024-01-27T18:46:10;10.50;73.90
35305;DHT22;26433;48.034;-1.764;2024-01-27T18:51:15;10.50;74.00
35305;DHT22;26433;48.034;-1.764;2024-01-27T18:56:20;10.50;74.40
35305;DHT22;26433;48.034;-1.764;2024-01-27T19:01:24;10.50;74.50
35305;DHT22;26433;48.034;-1.764;2024-01-27T19:06:27;10.40;74.60
35305;DHT22;26433;48.034;-1.764;2024-01-27T19:11:34;10.40;74.80
35305;DHT22;26433;48.034;-1.764;2024-01-27T19:16:39;10.40;75.50
35305;DHT22;26433;48.034;-1.764;2024-01-27T19:21:43;10.40;75.00
35305;DHT22;26433;48.034;-1.764;2024-01-27T19:26:48;10.30;75.50
35305;DHT22;26433;48.034;-1.764;2024-01-27T19:31:51;10.20;75.90
35305;DHT22;26433;48.034;-1.764;2024-01-27T19:36:56;10.20;76.00
35305;DHT22;26433;48.034;-1.764;2024-01-27T19:42:01;10.20;76.00
35305;DHT22;26433;48.034;-1.764;2024-01-27T19:47:05;10.10;76.50
35305;DHT22;26433;48.034;-1.764;2024-01-27T19:52:10;10.10;76.70
35305;DHT22;26433;48.034;-1.764;2024-01-27T19:57:15;10.00;76.70
35305;DHT22;26433;48.034;-1.764;2024-01-27T20:02:18;9.90;77.60
35305;DHT22;26433;48.034;-1.764;2024-01-27T20:07:22;9.90;77.70
35305;DHT22;26433;48.034;-1.764;2024-01-27T20:12:27;9.80;77.80
35305;DHT22;26433;48.034;-1.764;2024-01-27T20:17:31;9.80;77.80
35305;DHT22;26433;48.034;-1.764;2024-01-27T20:22:35;9.80;78.00
35305;DHT22;26433;48.034;-1.764;2024-01-27T20:27:40;9.80;78.10
35305;DHT22;26433;48.034;-1.764;2024-01-27T20:32:46;9.70;78.30
35305;DHT22;26433;48.034;-1.764;2024-01-27T20:37:51;9.60;78.60
35305;DHT22;26433;48.034;-1.764;2024-01-27T20:42:56;9.60;79.00
35305;DHT22;26433;48.034;-1.764;2024-01-27T20:48:00;9.40;79.30
35305;DHT22;26433;48.034;-1.764;2024-01-27T20:53:04;9.40;79.80
35305;DHT22;26433;48.034;-1.764;2024-01-27T21:01:23;9.20;79.90
35305;DHT22;26433;48.034;-1.764;2024-01-27T21:06:27;9.20;81.10
35305;DHT22;26433;48.034;-1.764;2024-01-27T21:11:31;9.10;80.70
35305;DHT22;26433;48.034;-1.764;2024-01-27T21:16:36;9.00;81.20
35305;DHT22;26433;48.034;-1.764;2024-01-27T21:21:41;9.10;81.30
35305;DHT22;26433;48.034;-1.764;2024-01-27T21:26:45;9.00;81.30
35305;DHT22;26433;48.034;-1.764;2024-01-27T21:31:50;9.00;81.60
35305;DHT22;26433;48.034;-1.764;2024-01-27T21:36:54;9.10;81.80
35305;DHT22;26433;48.034;-1.764;2024-01-27T21:41:57;9.10;81.20
35305;DHT22;26433;48.034;-1.764;2024-01-27T21:47:02;9.00;81.20
35305;DHT22;26433;48.034;-1.764;2024-01-27T21:52:06;9.00;81.70
35305;DHT22;26433;48.034;-1.764;2024-01-27T21:57:10;9.00;81.90
35305;DHT22;26433;48.034;-1.764;2024-01-27T22:02:15;9.00;82.10
35305;DHT22;26433;48.034;-1.764;2024-01-27T22:07:18;9.10;82.00
35305;DHT22;26433;48.034;-1.764;2024-01-27T22:12:22;9.10;82.00
35305;DHT22;26433;48.034;-1.764;2024-01-27T22:17:27;9.00;82.30
35305;DHT22;26433;48.034;-1.764;2024-01-27T22:22:30;9.00;83.00
35305;DHT22;26433;48.034;-1.764;2024-01-27T22:27:35;9.00;82.90
35305;DHT22;26433;48.034;-1.764;2024-01-27T22:32:41;8.90;83.00
35305;DHT22;26433;48.034;-1.764;2024-01-27T22:37:45;8.90;83.30
35305;DHT22;26433;48.034;-1.764;2024-01-27T22:42:49;8.90;83.30
35305;DHT22;26433;48.034;-1.764;2024-01-27T22:47:54;8.90;83.70
35305;DHT22;26433;48.034;-1.764;2024-01-27T22:52:58;8.90;83.60
35305;DHT22;26433;48.034;-1.764;2024-01-27T22:58:01;8.80;84.10
35305;DHT22;26433;48.034;-1.764;2024-01-27T23:03:07;8.90;84.40
35305;DHT22;26433;48.034;-1.764;2024-01-27T23:08:12;8.80;84.60
35305;DHT22;26433;48.034;-1.764;2024-01-27T23:13:15;8.80;84.50
35305;DHT22;26433;48.034;-1.764;2024-01-27T23:18:26;8.70;84.50
35305;DHT22;26433;48.034;-1.764;2024-01-27T23:23:31;8.70;84.80
35305;DHT22;26433;48.034;-1.764;2024-01-27T23:28:34;8.70;85.10
35305;DHT22;26433;48.034;-1.764;2024-01-27T23:33:40;8.60;85.10
35305;DHT22;26433;48.034;-1.764;2024-01-27T23:38:50;8.60;86.60
35305;DHT22;26433;48.034;-1.764;2024-01-27T23:43:55;8.60;86.80
35305;DHT22;26433;48.034;-1.764;2024-01-27T23:49:00;8.60;85.90
35305;DHT22;26433;48.034;-1.764;2024-01-27T23:54:04;8.70;86.10
35305;DHT22;26433;48.034;-1.764;2024-01-27T23:59:15;8.60;85.90
